createdAt,value
2018-11-02T00:03:33.895Z,10.90
2018-11-02T00:08:38.592Z,8.13
2018-11-02T00:13:51.437Z,5.27
2018-11-02T00:18:55.223Z,6.10
2018-11-02T00:23:58.731Z,5.70
2018-11-02T00:29:03.933Z,7.03
2018-11-02T00:34:07.567Z,5.23
2018-11-02T00:39:12.158Z,4.00
2018-11-02T00:44:15.746Z,4.30
2018-11-02T00:49:19.885Z,6.00
2018-11-02T00:54:23.812Z,6.40
2018-11-02T00:59:27.350Z,6.23
2018-11-02T01:04:31.116Z,4.33
2018-11-02T01:09:36.130Z,5.87
2018-11-02T01:14:39.706Z,5.37
2018-11-02T01:19:43.372Z,5.57
2018-11-02T01:24:47.039Z,4.83
2018-11-02T01:29:52.723Z,4.30
2018-11-02T01:34:56.367Z,4.13
2018-11-02T01:40:00.038Z,4.73
2018-11-02T01:45:05.300Z,4.23
2018-11-02T01:50:08.862Z,4.57
2018-11-02T01:55:12.432Z,3.40
2018-11-02T02:00:20.355Z,3.80
2018-11-02T02:05:24.075Z,4.53
2018-11-02T02:10:28.803Z,4.53
2018-11-02T02:15:35.706Z,3.03
2018-11-02T02:20:39.296Z,3.10
2018-11-02T02:25:42.895Z,2.73
2018-11-02T02:30:46.402Z,2.67
2018-11-02T02:35:50.071Z,2.27
2018-11-02T02:40:53.666Z,3.13
2018-11-02T02:45:57.385Z,3.07
2018-11-02T02:51:00.930Z,1.83
2018-11-02T02:56:05.513Z,4.43
2018-11-02T03:01:09.165Z,1.50
2018-11-02T03:06:13.844Z,1.30
2018-11-02T03:11:17.509Z,1.47
2018-11-02T03:16:20.990Z,1.40
2018-11-02T03:21:24.665Z,1.60
2018-11-02T03:26:28.176Z,1.40
2018-11-02T03:31:31.806Z,1.47
2018-11-02T03:36:35.446Z,1.53
2018-11-02T03:41:39.010Z,1.67
2018-11-02T03:46:42.646Z,1.40
2018-11-02T03:51:46.183Z,1.10
2018-11-02T03:56:52.620Z,1.50
2018-11-02T04:01:56.080Z,1.80
2018-11-02T04:07:00.701Z,4.23
2018-11-02T04:12:04.411Z,1.97
2018-11-02T04:17:07.978Z,2.17
2018-11-02T04:22:11.710Z,1.70
2018-11-02T04:27:15.397Z,1.80
2018-11-02T04:32:19.076Z,4.30
2018-11-02T04:37:22.690Z,3.37
2018-11-02T04:42:27.508Z,2.47
2018-11-02T04:47:31.068Z,2.30
2018-11-02T04:52:34.707Z,1.80
2018-11-02T04:57:38.457Z,3.90
2018-11-02T05:02:42.094Z,3.23
2018-11-02T05:07:46.008Z,4.10
2018-11-02T05:12:50.054Z,3.97
2018-11-02T05:17:53.796Z,3.70
2018-11-02T05:22:57.570Z,3.50
2018-11-02T05:28:01.216Z,3.13
2018-11-02T05:33:05.239Z,2.50
2018-11-02T05:38:09.856Z,2.77
2018-11-02T05:43:14.882Z,4.10
2018-11-02T05:48:18.482Z,4.60
2018-11-02T05:53:23.225Z,5.00
2018-11-02T05:58:27.086Z,10.57
2018-11-02T06:03:31.990Z,5.13
2018-11-02T06:08:37.831Z,4.30
2018-11-02T06:13:43.879Z,3.97
2018-11-02T06:18:47.580Z,3.93
2018-11-02T06:23:51.215Z,4.17
2018-11-02T06:28:54.870Z,4.97
2018-11-02T06:33:58.629Z,5.47
2018-11-02T06:39:02.379Z,7.77
2018-11-02T06:44:06.019Z,7.53
2018-11-02T06:49:09.717Z,8.20
2018-11-02T06:54:13.549Z,9.90
2018-11-02T06:59:17.371Z,4.87
2018-11-02T07:04:21.941Z,12.40
2018-11-02T07:09:25.583Z,15.30
2018-11-02T07:14:29.223Z,10.23
2018-11-02T07:19:32.807Z,17.70
2018-11-02T07:24:36.663Z,9.07
2018-11-02T07:29:40.441Z,6.57
2018-11-02T07:34:46.646Z,9.53
2018-11-02T07:39:52.751Z,18.20
2018-11-02T07:44:56.383Z,8.50
2018-11-02T07:50:02.027Z,3.70
2018-11-02T07:55:07.262Z,2.73
2018-11-02T08:00:13.747Z,9.47
2018-11-02T08:05:18.214Z,2.50
2018-11-02T08:10:22.955Z,4.23
2018-11-02T08:15:26.718Z,9.73
2018-11-02T08:20:31.471Z,13.60
2018-11-02T08:25:35.263Z,11.40
2018-11-02T08:30:38.898Z,3.40
2018-11-02T08:35:47.691Z,4.83
2018-11-02T08:40:51.306Z,3.60
2018-11-02T08:45:55.447Z,3.40
2018-11-02T08:50:59.055Z,4.00
2018-11-02T08:56:02.662Z,8.70
2018-11-02T09:01:06.398Z,3.37
2018-11-02T09:06:10.545Z,2.63
2018-11-02T09:11:14.236Z,6.60
2018-11-02T09:16:17.810Z,4.47
2018-11-02T09:21:21.487Z,2.93
2018-11-02T09:26:25.403Z,3.87
2018-11-02T09:31:28.970Z,4.67
2018-11-02T09:36:32.553Z,4.17
2018-11-02T09:41:39.532Z,4.23
2018-11-02T09:46:43.403Z,3.83
2018-11-02T09:51:47.527Z,3.53
2018-11-02T09:56:51.193Z,3.07
2018-11-02T10:01:54.847Z,3.30
2018-11-02T10:06:58.498Z,3.80
2018-11-02T10:12:02.594Z,3.73
2018-11-02T10:17:10.668Z,6.47
2018-11-02T10:22:15.663Z,5.73
2018-11-02T10:27:23.811Z,5.67
2018-11-02T10:32:27.781Z,4.00
2018-11-02T10:37:32.954Z,4.37
2018-11-02T10:42:36.807Z,10.20
2018-11-02T10:47:40.614Z,3.13
2018-11-02T10:52:44.179Z,4.80
2018-11-02T10:57:47.868Z,8.63
2018-11-02T11:02:55.546Z,4.90
2018-11-02T11:07:59.146Z,3.73
2018-11-02T11:13:03.166Z,6.23
2018-11-02T11:18:11.195Z,5.70
2018-11-02T11:23:16.599Z,4.63
2018-11-02T11:28:23.292Z,4.77
2018-11-02T11:33:27.023Z,5.90
2018-11-02T11:38:30.667Z,6.60
2018-11-02T11:43:34.283Z,6.67
2018-11-02T11:48:37.969Z,8.77
2018-11-02T11:53:41.633Z,3.20
2018-11-02T11:58:45.249Z,2.47
2018-11-02T12:03:48.958Z,5.23
2018-11-02T12:08:52.626Z,3.00
2018-11-02T12:13:57.525Z,7.90
2018-11-02T12:19:01.314Z,3.60
2018-11-02T12:24:05.596Z,4.03
2018-11-02T12:29:09.297Z,4.10
2018-11-02T12:34:12.958Z,4.27
2018-11-02T12:39:17.962Z,3.53
2018-11-02T12:44:21.546Z,2.73
2018-11-02T12:49:27.306Z,4.80
2018-11-02T12:54:34.355Z,4.20
2018-11-02T12:59:38.263Z,6.60
2018-11-02T13:04:42.058Z,5.47
2018-11-02T13:09:45.946Z,4.93
2018-11-02T13:14:52.267Z,6.40
2018-11-02T13:19:56.305Z,5.53
2018-11-02T13:25:01.186Z,5.00
2018-11-02T13:30:05.120Z,4.87
2018-11-02T13:35:11.671Z,5.47
2018-11-02T13:40:16.483Z,5.30
2018-11-02T13:45:22.887Z,9.20
2018-11-02T13:50:26.682Z,5.30
2018-11-02T13:55:30.201Z,5.10
2018-11-02T14:00:35.866Z,7.00
2018-11-02T14:05:39.483Z,7.17
2018-11-02T14:10:43.015Z,4.57
2018-11-02T14:15:46.592Z,5.97
2018-11-02T14:20:50.281Z,7.13
2018-11-02T14:25:54.731Z,6.57
2018-11-02T14:30:58.452Z,7.77
2018-11-02T14:36:06.826Z,6.23
2018-11-02T14:41:10.778Z,4.43
2018-11-02T14:46:15.513Z,4.13
2018-11-02T14:51:19.207Z,5.63
2018-11-02T14:56:23.929Z,4.73
2018-11-02T15:01:28.252Z,6.43
2018-11-02T15:06:35.598Z,10.80
2018-11-02T15:11:39.185Z,36.10
2018-11-02T15:16:42.858Z,10.67
2018-11-02T15:21:46.694Z,9.57
2018-11-02T15:26:50.358Z,26.93
2018-11-02T15:31:54.433Z,36.57
2018-11-02T15:36:58.170Z,21.13
2018-11-02T15:42:01.785Z,9.03
2018-11-02T15:47:07.060Z,14.40
2018-11-02T15:52:11.764Z,13.53
2018-11-02T15:57:15.520Z,28.17
2018-11-02T16:02:19.244Z,34.20
2018-11-02T16:07:22.884Z,41.93
2018-11-02T16:12:27.439Z,16.90
2018-11-02T16:17:31.137Z,33.77
2018-11-02T16:22:34.773Z,10.30
2018-11-02T16:27:38.530Z,9.13
2018-11-02T16:32:42.150Z,10.67
2018-11-02T16:37:45.763Z,9.77
2018-11-02T16:42:49.424Z,16.33
2018-11-02T16:47:53.103Z,17.33
2018-11-02T16:52:56.683Z,24.97
2018-11-02T16:58:01.419Z,22.97
2018-11-02T17:03:05.288Z,15.27
2018-11-02T17:08:08.959Z,14.23
2018-11-02T17:13:12.794Z,20.90
2018-11-02T17:18:16.525Z,25.27
2018-11-02T17:23:20.029Z,21.07
2018-11-02T17:28:23.614Z,16.37
2018-11-02T17:33:27.449Z,25.03
2018-11-02T17:38:30.977Z,20.73
2018-11-02T17:43:35.943Z,15.23
2018-11-02T17:48:40.071Z,14.40
2018-11-02T17:53:44.725Z,11.93
2018-11-02T17:58:49.279Z,12.70
2018-11-02T18:03:53.179Z,17.47
2018-11-02T18:08:57.479Z,13.57
2018-11-02T18:14:02.530Z,9.97
2018-11-02T18:19:06.313Z,11.13
2018-11-02T18:24:11.176Z,15.20
2018-11-02T18:29:14.864Z,17.40
2018-11-02T18:34:18.569Z,20.00
2018-11-02T18:39:22.278Z,21.87
2018-11-02T18:44:26.028Z,19.07
2018-11-02T18:49:29.675Z,19.83
2018-11-02T18:54:33.494Z,17.73
2018-11-02T18:59:37.294Z,14.33
2018-11-02T19:04:40.848Z,18.57
2018-11-02T19:09:44.549Z,23.20
2018-11-02T19:14:48.113Z,20.37
2018-11-02T19:19:51.880Z,18.53
2018-11-02T19:24:55.794Z,20.33
2018-11-02T19:30:01.841Z,23.20
2018-11-02T19:35:06.218Z,22.53
2018-11-02T19:40:13.461Z,19.10
2018-11-02T19:45:17.527Z,17.47
2018-11-02T19:50:21.343Z,13.53
2018-11-02T19:55:26.196Z,19.40
2018-11-02T20:00:32.560Z,14.50
2018-11-02T20:05:36.281Z,19.27
2018-11-02T20:10:39.987Z,15.53
2018-11-02T20:21:03.319Z,19.80
2018-11-02T20:26:07.092Z,22.87
2018-11-02T20:31:10.622Z,16.30
2018-11-02T20:36:14.467Z,17.57
2018-11-02T20:41:18.299Z,18.77
2018-11-02T20:46:22.006Z,19.00
2018-11-02T20:51:25.554Z,18.67
2018-11-02T20:56:29.206Z,19.30
2018-11-02T21:01:34.011Z,22.80
2018-11-02T21:06:37.558Z,17.80
2018-11-02T21:11:48.337Z,15.97
2018-11-02T21:16:52.998Z,17.40
2018-11-02T21:21:57.042Z,13.63
2018-11-02T21:27:00.700Z,25.20
2018-11-02T21:32:08.646Z,17.47
2018-11-02T21:37:17.916Z,16.27
2018-11-02T21:42:22.717Z,18.17
2018-11-02T21:47:40.375Z,19.47
2018-11-02T21:52:48.289Z,22.00
2018-11-02T21:57:52.961Z,19.03
2018-11-02T22:02:56.801Z,22.53
2018-11-02T22:08:00.526Z,16.83
2018-11-02T22:13:08.270Z,20.47
2018-11-02T22:18:11.882Z,19.40
2018-11-02T22:23:15.582Z,18.57
2018-11-02T22:28:20.215Z,22.23
2018-11-02T22:33:23.922Z,21.30
2018-11-02T22:38:32.011Z,20.50
2018-11-02T22:43:40.859Z,23.13
2018-11-02T22:48:44.537Z,23.03
2018-11-02T22:53:50.166Z,17.33
2018-11-02T22:58:55.041Z,16.93
2018-11-02T23:04:01.638Z,14.53
2018-11-02T23:09:08.464Z,20.87
2018-11-02T23:14:12.326Z,14.87
2018-11-02T23:19:16.139Z,14.57
2018-11-02T23:24:21.803Z,15.23
2018-11-02T23:29:25.428Z,13.40
2018-11-02T23:34:29.424Z,13.80
2018-11-02T23:39:37.789Z,14.53
2018-11-02T23:44:42.474Z,10.37
2018-11-02T23:49:46.079Z,14.07
2018-11-02T23:54:54.670Z,16.07
2018-11-02T23:59:58.708Z,17.70
